createdAt,value
2018-09-28T00:00:06.042Z,6.77
2018-09-28T00:02:34.415Z,6.20
2018-09-28T00:05:03.361Z,8.63
2018-09-28T00:07:31.741Z,9.27
2018-09-28T00:09:59.963Z,6.37
2018-09-28T00:12:28.376Z,6.00
2018-09-28T00:14:57.251Z,7.73
2018-09-28T00:17:25.786Z,8.70
2018-09-28T00:19:53.993Z,5.67
2018-09-28T00:22:22.223Z,6.07
2018-09-28T00:24:50.598Z,8.67
2018-09-28T00:27:18.806Z,7.67
2018-09-28T00:29:47.440Z,7.27
2018-09-28T00:32:15.721Z,5.90
2018-09-28T00:34:43.958Z,7.20
2018-09-28T00:37:12.341Z,6.83
2018-09-28T00:39:40.994Z,8.50
2018-09-28T00:42:09.156Z,6.43
2018-09-28T00:44:37.934Z,7.27
2018-09-28T00:47:06.433Z,7.50
2018-09-28T00:49:34.785Z,8.87
2018-09-28T00:52:04.030Z,7.33
2018-09-28T00:54:32.276Z,10.30
2018-09-28T00:57:00.663Z,8.57
2018-09-28T00:59:28.932Z,10.03
2018-09-28T01:01:57.289Z,8.03
2018-09-28T01:04:25.724Z,10.67
2018-09-28T01:06:53.903Z,8.83
2018-09-28T01:09:22.058Z,8.10
2018-09-28T01:11:50.250Z,8.30
2018-09-28T01:14:19.213Z,8.03
2018-09-28T01:16:47.466Z,8.33
2018-09-28T01:19:15.665Z,6.83
2018-09-28T01:21:43.946Z,11.30
2018-09-28T01:24:12.723Z,7.47
2018-09-28T01:26:41.079Z,9.23
2018-09-28T01:29:09.312Z,7.40
2018-09-28T01:31:37.622Z,7.63
2018-09-28T01:34:05.845Z,11.43
2018-09-28T01:36:34.147Z,9.10
2018-09-28T01:39:02.534Z,7.70
2018-09-28T01:41:30.735Z,7.23
2018-09-28T01:43:59.036Z,8.47
2018-09-28T01:46:27.434Z,9.50
2018-09-28T01:48:55.946Z,8.90
2018-09-28T01:51:24.121Z,8.07
2018-09-28T01:53:52.337Z,8.27
2018-09-28T01:56:20.541Z,7.40
2018-09-28T01:58:48.765Z,8.90
2018-09-28T02:01:17.029Z,7.50
2018-09-28T02:03:45.185Z,9.33
2018-09-28T02:06:13.373Z,8.47
2018-09-28T02:08:41.828Z,8.33
2018-09-28T02:11:10.012Z,10.63
2018-09-28T02:13:38.156Z,10.43
2018-09-28T02:16:06.333Z,9.83
2018-09-28T02:18:34.608Z,8.93
2018-09-28T02:21:03.432Z,10.97
2018-09-28T02:23:31.610Z,10.03
2018-09-28T02:25:59.872Z,10.37
2018-09-28T02:28:28.031Z,11.90
2018-09-28T02:30:56.404Z,8.67
2018-09-28T02:33:24.620Z,9.13
2018-09-28T02:35:52.800Z,9.77
2018-09-28T02:38:21.007Z,9.30
2018-09-28T02:40:49.366Z,11.83
2018-09-28T02:43:17.599Z,9.20
2018-09-28T02:45:45.768Z,10.80
2018-09-28T02:48:13.993Z,10.07
2018-09-28T02:50:42.722Z,10.73
2018-09-28T02:53:15.158Z,11.97
2018-09-28T02:55:43.308Z,8.33
2018-09-28T02:58:11.737Z,10.10
2018-09-28T03:00:40.260Z,10.63
2018-09-28T03:03:08.793Z,8.63
2018-09-28T03:05:37.006Z,10.47
2018-09-28T03:08:05.162Z,13.87
2018-09-28T03:10:34.013Z,14.80
2018-09-28T03:13:02.309Z,12.57
2018-09-28T03:15:30.527Z,13.27
2018-09-28T03:17:58.808Z,17.10
2018-09-28T03:20:27.029Z,12.50
2018-09-28T03:22:55.241Z,11.03
2018-09-28T03:25:23.433Z,10.87
2018-09-28T03:27:51.618Z,13.27
2018-09-28T03:30:20.060Z,11.67
2018-09-28T03:32:49.406Z,13.37
2018-09-28T03:35:17.645Z,11.47
2018-09-28T03:37:45.826Z,11.10
2018-09-28T03:40:14.036Z,11.67
2018-09-28T03:42:42.691Z,12.87
2018-09-28T03:45:11.733Z,10.30
2018-09-28T03:47:41.543Z,14.70
2018-09-28T03:50:09.708Z,13.17
2018-09-28T03:52:37.867Z,14.13
2018-09-28T03:55:06.047Z,11.27
2018-09-28T03:57:34.930Z,15.93
2018-09-28T04:00:03.189Z,14.13
2018-09-28T04:02:31.374Z,13.53
2018-09-28T04:04:59.563Z,12.17
2018-09-28T04:07:28.014Z,14.40
2018-09-28T04:09:56.289Z,8.80
2018-09-28T04:14:59.086Z,10.97
2018-09-28T04:17:28.060Z,10.63
2018-09-28T04:19:56.425Z,14.17
2018-09-28T04:22:24.617Z,13.30
2018-09-28T04:24:52.814Z,13.73
2018-09-28T04:27:20.971Z,11.37
2018-09-28T04:29:49.610Z,11.67
2018-09-28T04:32:17.848Z,11.60
2018-09-28T04:34:46.288Z,8.60
2018-09-28T04:37:14.453Z,10.93
2018-09-28T04:39:42.780Z,9.43
2018-09-28T04:42:11.449Z,9.27
2018-09-28T04:44:39.626Z,10.97
2018-09-28T04:47:07.841Z,10.50
2018-09-28T04:49:36.060Z,10.07
2018-09-28T04:52:04.351Z,12.57
2018-09-28T04:54:32.552Z,10.70
2018-09-28T04:57:00.762Z,11.37
2018-09-28T04:59:29.013Z,11.73
2018-09-28T05:01:57.932Z,8.80
2018-09-28T05:04:26.504Z,11.40
2018-09-28T05:06:54.734Z,10.03
2018-09-28T05:09:22.937Z,12.97
2018-09-28T05:11:51.110Z,9.60
2018-09-28T05:14:19.357Z,10.07
2018-09-28T05:16:47.732Z,12.03
2018-09-28T05:19:16.021Z,10.10
2018-09-28T05:21:44.293Z,11.97
2018-09-28T05:24:12.525Z,14.20
2018-09-28T05:26:40.870Z,10.47
2018-09-28T05:29:09.034Z,11.60
2018-09-28T05:31:37.259Z,12.20
2018-09-28T05:34:05.656Z,12.33
2018-09-28T05:36:34.625Z,13.23
2018-09-28T05:39:02.816Z,10.17
2018-09-28T05:41:30.975Z,8.30
2018-09-28T05:43:59.133Z,16.13
2018-09-28T05:46:27.421Z,12.03
2018-09-28T05:48:55.701Z,12.50
2018-09-28T05:51:23.947Z,19.57
2018-09-28T05:53:52.056Z,13.30
2018-09-28T05:56:20.784Z,10.60
2018-09-28T05:58:54.542Z,11.87
2018-09-28T06:01:27.973Z,12.77
2018-09-28T06:04:01.646Z,12.57
2018-09-28T06:06:29.842Z,11.57
2018-09-28T06:08:58.044Z,9.77
2018-09-28T06:11:26.324Z,8.97
2018-09-28T06:13:54.516Z,8.37
2018-09-28T06:16:22.705Z,7.77
2018-09-28T06:18:50.876Z,10.40
2018-09-28T06:21:19.644Z,9.93
2018-09-28T06:23:47.824Z,10.73
2018-09-28T06:26:16.125Z,10.53
2018-09-28T06:28:44.328Z,8.07
2018-09-28T06:31:12.657Z,13.87
2018-09-28T06:33:40.864Z,13.60
2018-09-28T06:36:09.076Z,16.20
2018-09-28T06:38:37.244Z,15.47
2018-09-28T06:41:05.545Z,13.37
2018-09-28T06:43:33.869Z,14.43
2018-09-28T06:46:02.055Z,20.03
2018-09-28T06:48:30.241Z,18.43
2018-09-28T06:50:58.438Z,15.87
2018-09-28T06:53:26.654Z,24.20
2018-09-28T06:55:54.832Z,20.47
2018-09-28T06:58:23.017Z,19.20
2018-09-28T07:00:51.264Z,25.87
2018-09-28T07:03:19.586Z,17.77
2018-09-28T07:05:48.200Z,13.20
2018-09-28T07:08:16.322Z,16.07
2018-09-28T07:10:44.513Z,20.13
2018-09-28T07:13:12.938Z,14.97
2018-09-28T07:15:41.364Z,17.23
2018-09-28T07:18:09.607Z,11.87
2018-09-28T07:20:37.825Z,13.33
2018-09-28T07:23:06.183Z,14.47
2018-09-28T07:25:34.439Z,11.33
2018-09-28T07:28:02.608Z,9.93
2018-09-28T07:30:30.781Z,13.47
2018-09-28T07:32:58.969Z,11.53
2018-09-28T07:35:27.292Z,15.20
2018-09-28T07:37:55.477Z,11.67
2018-09-28T07:40:23.635Z,10.83
2018-09-28T07:42:51.804Z,11.30
2018-09-28T07:45:20.057Z,9.60
2018-09-28T07:47:48.404Z,9.07
2018-09-28T07:50:16.617Z,12.00
2018-09-28T07:52:44.820Z,9.53
2018-09-28T07:55:13.284Z,9.40
2018-09-28T07:57:41.485Z,9.30
2018-09-28T08:00:09.707Z,10.20
2018-09-28T08:02:37.893Z,8.15
2018-09-28T08:05:06.086Z,9.45
2018-09-28T08:07:34.406Z,7.75
2018-09-28T08:10:02.595Z,9.43
2018-09-28T08:12:30.776Z,10.45
2018-09-28T08:14:58.969Z,6.20
2018-09-28T08:17:27.249Z,7.85
2018-09-28T08:19:57.948Z,9.35
2018-09-28T08:22:26.158Z,7.30
2018-09-28T08:24:54.349Z,8.15
2018-09-28T08:27:22.601Z,12.45
2018-09-28T08:29:50.797Z,10.93
2018-09-28T08:32:18.992Z,10.75
2018-09-28T08:34:49.039Z,8.60
2018-09-28T08:37:17.220Z,9.83
2018-09-28T08:39:45.414Z,9.55
2018-09-28T08:42:13.601Z,9.53
2018-09-28T08:44:41.973Z,11.65
2018-09-28T08:47:10.165Z,10.63
2018-09-28T08:49:38.374Z,10.35
2018-09-28T08:52:06.585Z,10.08
2018-09-28T08:54:34.957Z,11.40
2018-09-28T08:57:03.157Z,8.85
2018-09-28T08:59:31.350Z,15.20
2018-09-28T09:01:59.550Z,8.48
2018-09-28T09:04:27.902Z,9.98
2018-09-28T09:06:57.274Z,10.85
2018-09-28T09:09:25.493Z,9.48
2018-09-28T09:11:53.769Z,10.03
2018-09-28T09:14:21.968Z,10.98
2018-09-28T09:19:14.095Z,11.07
2018-09-28T09:21:43.217Z,10.13
2018-09-28T09:24:11.421Z,11.45
2018-09-28T09:26:39.602Z,14.03
2018-09-28T09:29:07.798Z,9.13
2018-09-28T09:31:36.042Z,11.33
2018-09-28T09:34:04.781Z,10.28
2018-09-28T09:36:32.996Z,10.80
2018-09-28T09:39:01.150Z,10.95
2018-09-28T09:41:29.401Z,11.30
2018-09-28T09:43:58.337Z,13.00
2018-09-28T09:46:26.605Z,12.03
2018-09-28T09:48:54.806Z,15.13
2018-09-28T09:51:23.033Z,10.20
2018-09-28T09:53:51.232Z,18.55
2018-09-28T09:56:19.481Z,14.07
2018-09-28T09:58:47.797Z,12.63
2018-09-28T10:01:21.557Z,13.45
2018-09-28T10:03:50.968Z,15.25
2018-09-28T10:06:19.460Z,17.02
2018-09-28T10:08:47.870Z,15.40
2018-09-28T10:11:16.079Z,16.87
2018-09-28T10:13:44.300Z,17.82
2018-09-28T10:16:12.981Z,17.25
2018-09-28T10:18:41.400Z,14.50
2018-09-28T10:21:09.641Z,18.55
2018-09-28T10:23:37.929Z,17.50
2018-09-28T10:26:06.157Z,19.82
2018-09-28T10:28:34.758Z,20.50
2018-09-28T10:31:03.064Z,20.95
2018-09-28T10:33:31.237Z,22.20
2018-09-28T10:35:59.441Z,17.05
2018-09-28T10:38:28.382Z,18.90
2018-09-28T10:40:56.845Z,20.92
2018-09-28T10:43:25.137Z,18.95
2018-09-28T10:45:53.522Z,20.30
2018-09-28T10:48:21.679Z,19.92
2018-09-28T10:50:50.419Z,23.75
2018-09-28T10:53:18.654Z,21.52
2018-09-28T10:55:46.860Z,16.57
2018-09-28T10:58:15.106Z,19.52
2018-09-28T11:00:43.909Z,22.42
2018-09-28T11:03:13.063Z,17.00
2018-09-28T11:05:41.513Z,17.05
2018-09-28T11:10:51.745Z,22.05
2018-09-28T11:13:20.037Z,16.67
2018-09-28T11:15:48.376Z,16.02
2018-09-28T11:18:16.508Z,17.82
2018-09-28T11:20:44.701Z,19.40
2018-09-28T11:23:12.953Z,16.55
2018-09-28T11:25:41.189Z,19.48
2018-09-28T11:28:10.074Z,20.62
2018-09-28T11:30:38.553Z,14.18
2018-09-28T11:33:06.888Z,16.97
2018-09-28T11:35:35.927Z,11.60
2018-09-28T11:38:04.169Z,8.95
2018-09-28T11:40:32.390Z,11.12
2018-09-28T11:43:00.583Z,10.55
2018-09-28T11:45:28.885Z,11.22
2018-09-28T11:47:57.005Z,12.03
2018-09-28T11:50:25.209Z,12.58
2018-09-28T11:52:53.420Z,13.62
2018-09-28T11:55:21.594Z,11.90
2018-09-28T11:57:50.475Z,10.90
2018-09-28T12:00:18.865Z,10.88
2018-09-28T12:02:47.147Z,12.03
2018-09-28T12:05:15.458Z,10.78
2018-09-28T12:07:43.625Z,8.98
2018-09-28T12:10:11.901Z,9.88
2018-09-28T12:12:40.120Z,12.50
2018-09-28T12:15:08.589Z,8.50
2018-09-28T12:17:37.099Z,10.53
2018-09-28T12:20:06.732Z,11.45
2018-09-28T12:22:35.553Z,8.75
2018-09-28T12:25:03.720Z,9.48
2018-09-28T12:27:32.226Z,9.55
2018-09-28T12:30:00.405Z,10.10
2018-09-28T12:32:28.969Z,15.32
2018-09-28T12:34:57.322Z,13.15
2018-09-28T12:37:26.421Z,12.30
2018-09-28T12:39:54.698Z,10.98
2018-09-28T12:42:23.018Z,11.75
2018-09-28T12:44:51.207Z,9.88
2018-09-28T12:47:19.661Z,9.20
2018-09-28T12:49:48.309Z,8.78
2018-09-28T12:52:16.563Z,7.85
2018-09-28T12:54:44.837Z,8.90
2018-09-28T12:57:13.003Z,11.65
2018-09-28T12:59:41.887Z,10.40
2018-09-28T13:02:10.285Z,15.28
2018-09-28T13:04:38.526Z,13.20
2018-09-28T13:07:06.793Z,9.45
2018-09-28T13:09:35.143Z,11.28
2018-09-28T13:12:03.440Z,11.63
2018-09-28T13:14:31.767Z,10.25
2018-09-28T13:16:59.979Z,13.38
2018-09-28T13:19:29.318Z,13.68
2018-09-28T13:21:57.681Z,8.93
2018-09-28T13:24:26.632Z,10.70
2018-09-28T13:26:54.885Z,12.82
2018-09-28T13:29:23.258Z,14.58
2018-09-28T13:31:51.571Z,8.65
2018-09-28T13:34:19.966Z,12.37
2018-09-28T13:36:48.429Z,12.68
2018-09-28T13:39:16.705Z,11.70
2018-09-28T13:41:45.050Z,14.07
2018-09-28T13:44:13.409Z,12.50
2018-09-28T13:46:41.753Z,13.33
2018-09-28T13:49:09.889Z,9.60
2018-09-28T13:51:38.142Z,12.37
2018-09-28T13:54:06.397Z,12.70
2018-09-28T13:56:34.738Z,13.13
2018-09-28T13:59:03.570Z,11.83
2018-09-28T14:01:31.833Z,8.93
2018-09-28T14:04:00.065Z,12.07
2018-09-28T14:06:28.403Z,10.73
2018-09-28T14:08:56.737Z,8.60
2018-09-28T14:11:24.966Z,12.53
2018-09-28T14:13:53.189Z,8.83
2018-09-28T14:16:21.464Z,9.87
2018-09-28T14:18:49.825Z,9.60
2018-09-28T14:21:18.225Z,9.23
2018-09-28T14:23:46.409Z,7.33
2018-09-28T14:26:14.822Z,9.97
2018-09-28T14:28:43.063Z,9.20
2018-09-28T14:31:11.319Z,10.58
2018-09-28T14:33:39.586Z,7.20
2018-09-28T14:36:07.833Z,10.27
2018-09-28T14:38:36.060Z,9.50
2018-09-28T14:41:04.277Z,8.67
2018-09-28T14:43:32.565Z,10.87
2018-09-28T14:46:00.842Z,8.67
2018-09-28T14:48:29.202Z,12.70
2018-09-28T14:50:57.593Z,11.27
2018-09-28T14:53:26.189Z,10.00
2018-09-28T14:55:54.761Z,10.30
2018-09-28T14:58:23.106Z,12.93
2018-09-28T15:00:51.416Z,12.80
2018-09-28T15:03:19.793Z,11.40
2018-09-28T15:05:48.068Z,9.60
2018-09-28T15:08:16.381Z,12.00
2018-09-28T15:10:44.580Z,11.23
2018-09-28T15:13:12.793Z,12.73
2018-09-28T15:15:41.080Z,13.73
2018-09-28T15:18:09.277Z,15.93
2018-09-28T15:20:37.453Z,16.87
2018-09-28T15:23:05.678Z,14.60
2018-09-28T15:25:34.022Z,20.67
2018-09-28T15:28:02.353Z,15.07
2018-09-28T15:30:30.561Z,14.03
2018-09-28T15:32:58.798Z,8.47
2018-09-28T15:35:27.071Z,6.30
2018-09-28T15:37:55.289Z,5.97
2018-09-28T15:40:23.477Z,7.40
2018-09-28T15:42:51.772Z,8.77
2018-09-28T15:45:20.081Z,7.33
2018-09-28T15:47:48.458Z,10.43
2018-09-28T15:50:16.955Z,8.30
2018-09-28T15:52:45.154Z,6.13
2018-09-28T15:55:13.379Z,9.00
2018-09-28T15:57:41.706Z,8.33
2018-09-28T16:00:10.015Z,8.90
2018-09-28T16:02:38.421Z,8.47
2018-09-28T16:05:06.658Z,6.17
2018-09-28T16:07:35.370Z,7.87
2018-09-28T16:10:03.600Z,7.17
2018-09-28T16:12:31.879Z,8.07
2018-09-28T16:15:00.172Z,13.23
2018-09-28T16:17:28.367Z,9.03
2018-09-28T16:19:56.633Z,8.60
2018-09-28T16:22:24.806Z,6.57
2018-09-28T16:24:53.265Z,7.80
2018-09-28T16:27:21.405Z,8.27
2018-09-28T16:29:49.582Z,5.70
2018-09-28T16:32:17.833Z,7.37
2018-09-28T16:34:46.005Z,5.20
2018-09-28T16:37:14.489Z,7.87
2018-09-28T16:39:42.684Z,3.97
2018-09-28T16:42:10.993Z,4.80
2018-09-28T16:44:39.277Z,3.83
2018-09-28T16:47:07.666Z,4.80
2018-09-28T16:49:35.877Z,3.23
2018-09-28T16:52:04.136Z,4.17
2018-09-28T16:54:32.405Z,2.90
2018-09-28T16:57:00.768Z,3.80
2018-09-28T16:59:28.998Z,3.23
2018-09-28T17:01:57.221Z,3.47
2018-09-28T17:04:25.476Z,2.40
2018-09-28T17:06:53.609Z,2.30
2018-09-28T17:09:21.848Z,3.63
2018-09-28T17:11:50.101Z,4.07
2018-09-28T17:14:18.304Z,2.37
2018-09-28T17:16:46.527Z,3.63
2018-09-28T17:19:14.730Z,4.67
2018-09-28T17:21:42.957Z,1.90
2018-09-28T17:24:11.157Z,3.27
2018-09-28T17:26:39.345Z,3.90
2018-09-28T17:29:07.797Z,2.67
2018-09-28T17:31:35.998Z,4.93
2018-09-28T17:34:04.281Z,1.43
2018-09-28T17:36:32.581Z,2.23
2018-09-28T17:39:00.781Z,2.07
2018-09-28T17:41:29.071Z,1.50
2018-09-28T17:43:57.229Z,1.40
2018-09-28T17:46:25.540Z,4.63
2018-09-28T17:48:53.757Z,1.87
2018-09-28T17:51:22.169Z,1.40
2018-09-28T17:53:50.406Z,1.50
2018-09-28T17:56:18.898Z,1.60
2018-09-28T17:58:47.088Z,4.83
2018-09-28T18:01:15.293Z,1.93
2018-09-28T18:03:43.497Z,1.53
2018-09-28T18:06:11.713Z,1.40
2018-09-28T18:08:40.020Z,3.10
2018-09-28T18:11:08.202Z,1.70
2018-09-28T18:13:36.424Z,2.13
2018-09-28T18:16:04.904Z,1.70
2018-09-28T18:18:33.045Z,4.70
2018-09-28T18:21:01.358Z,2.57
2018-09-28T18:23:29.550Z,2.80
2018-09-28T18:25:57.830Z,3.00
2018-09-28T18:28:26.156Z,2.03
2018-09-28T18:30:54.349Z,2.63
2018-09-28T18:33:22.550Z,3.20
2018-09-28T18:35:51.129Z,2.33
2018-09-28T18:38:19.372Z,4.10
2018-09-28T18:40:47.647Z,8.53
2018-09-28T18:43:15.921Z,4.57
2018-09-28T18:45:44.303Z,4.67
2018-09-28T18:48:12.528Z,4.03
2018-09-28T18:50:41.729Z,4.73
2018-09-28T18:53:09.931Z,5.60
2018-09-28T18:55:38.190Z,5.50
2018-09-28T18:58:06.825Z,4.23
2018-09-28T19:00:35.090Z,5.83
2018-09-28T19:03:03.381Z,4.93
2018-09-28T19:05:31.573Z,4.83
2018-09-28T19:07:59.823Z,6.67
2018-09-28T19:10:28.265Z,4.90
2018-09-28T19:12:56.761Z,5.90
2018-09-28T19:15:24.875Z,6.07
2018-09-28T19:17:53.160Z,7.60
2018-09-28T19:20:21.361Z,5.23
2018-09-28T19:22:49.599Z,5.07
2018-09-28T19:25:17.806Z,3.77
2018-09-28T19:27:46.131Z,4.07
2018-09-28T19:30:14.542Z,4.50
2018-09-28T19:32:42.748Z,5.70
2018-09-28T19:35:11.019Z,3.83
2018-09-28T19:37:39.218Z,3.33
2018-09-28T19:40:07.424Z,6.30
2018-09-28T19:42:35.730Z,3.30
2018-09-28T19:45:10.392Z,5.90
2018-09-28T19:47:38.666Z,2.80
2018-09-28T19:50:06.841Z,6.20
2018-09-28T19:52:35.065Z,5.50
2018-09-28T19:55:03.381Z,3.80
2018-09-28T19:57:31.625Z,3.60
2018-09-28T19:59:59.941Z,4.37
2018-09-28T20:02:28.238Z,6.60
2018-09-28T20:04:56.438Z,3.20
2018-09-28T20:07:24.675Z,3.20
2018-09-28T20:09:52.894Z,3.40
2018-09-28T20:12:21.078Z,6.27
2018-09-28T20:14:49.283Z,4.67
2018-09-28T20:17:17.473Z,6.33
2018-09-28T20:19:45.705Z,4.70
2018-09-28T20:22:14.533Z,4.20
2018-09-28T20:24:43.951Z,4.90
2018-09-28T20:27:12.320Z,3.63
2018-09-28T20:29:40.615Z,6.03
2018-09-28T20:32:08.874Z,1.73
2018-09-28T20:34:37.151Z,5.67
2018-09-28T20:37:05.478Z,6.13
2018-09-28T20:39:33.800Z,2.77
2018-09-28T20:42:02.010Z,7.53
2018-09-28T20:44:30.207Z,5.33
2018-09-28T20:46:58.682Z,11.47
2018-09-28T20:49:27.399Z,4.03
2018-09-28T20:51:55.591Z,3.40
2018-09-28T20:54:23.806Z,4.17
2018-09-28T20:56:51.985Z,5.50
2018-09-28T20:59:20.341Z,6.00
2018-09-28T21:01:48.602Z,4.23
2018-09-28T21:04:16.870Z,5.87
2018-09-28T21:06:45.045Z,3.53
2018-09-28T21:09:13.277Z,9.23
2018-09-28T21:11:41.445Z,7.00
2018-09-28T21:14:09.651Z,7.00
2018-09-28T21:16:37.892Z,6.90
2018-09-28T21:19:06.145Z,5.80
2018-09-28T21:21:34.376Z,7.97
2018-09-28T21:24:02.709Z,7.73
2018-09-28T21:26:30.919Z,5.40
2018-09-28T21:28:59.189Z,3.40
2018-09-28T21:31:27.479Z,4.40
2018-09-28T21:33:55.693Z,8.57
2018-09-28T21:36:23.882Z,9.67
2018-09-28T21:38:52.105Z,5.43
2018-09-28T21:41:20.313Z,5.10
2018-09-28T21:43:48.861Z,4.80
2018-09-28T21:46:17.202Z,7.70
2018-09-28T21:48:45.484Z,5.83
2018-09-28T21:51:13.769Z,5.53
2018-09-28T21:53:42.214Z,7.93
2018-09-28T21:56:10.502Z,7.40
2018-09-28T21:58:38.819Z,8.33
2018-09-28T22:01:07.229Z,9.50
2018-09-28T22:03:35.458Z,12.47
2018-09-28T22:06:03.909Z,3.60
2018-09-28T22:08:32.113Z,4.10
2018-09-28T22:11:00.474Z,4.03
2018-09-28T22:13:28.855Z,5.07
2018-09-28T22:15:57.110Z,6.60
2018-09-28T22:18:25.317Z,7.90
2018-09-28T22:20:53.545Z,1.97
2018-09-28T22:23:21.744Z,6.83
2018-09-28T22:25:50.069Z,4.50
2018-09-28T22:28:18.280Z,7.10
2018-09-28T22:30:46.634Z,5.83
2018-09-28T22:33:15.033Z,5.23
2018-09-28T22:35:43.477Z,7.03
2018-09-28T22:38:11.920Z,6.67
2018-09-28T22:40:40.138Z,10.13
2018-09-28T22:43:08.385Z,5.03
2018-09-28T22:45:36.775Z,8.93
2018-09-28T22:48:21.441Z,3.07
2018-09-28T22:50:49.838Z,6.47
2018-09-28T22:53:18.150Z,4.53
2018-09-28T22:55:46.543Z,5.30
2018-09-28T22:58:14.885Z,7.83
2018-09-28T23:00:43.400Z,5.50
2018-09-28T23:03:11.705Z,4.77
2018-09-28T23:05:40.138Z,2.83
2018-09-28T23:08:08.303Z,5.47
2018-09-28T23:10:36.749Z,5.33
2018-09-28T23:13:05.303Z,4.27
2018-09-28T23:15:33.601Z,3.40
2018-09-28T23:18:01.880Z,4.47
2018-09-28T23:20:30.229Z,10.53
2018-09-28T23:22:58.862Z,9.10
2018-09-28T23:25:27.338Z,8.53
2018-09-28T23:27:55.610Z,5.77
2018-09-28T23:30:23.912Z,7.67
2018-09-28T23:32:52.169Z,3.40
2018-09-28T23:35:20.946Z,5.17
2018-09-28T23:37:49.367Z,4.57
2018-09-28T23:40:17.823Z,4.27
2018-09-28T23:42:46.382Z,4.57
2018-09-28T23:45:14.644Z,8.37
2018-09-28T23:47:43.250Z,5.37
2018-09-28T23:50:11.402Z,7.00
2018-09-28T23:52:39.667Z,6.33
2018-09-28T23:55:07.906Z,6.40
2018-09-28T23:57:36.337Z,6.27
